sensor_id;sensor_type;location;lat;lon;timestamp;temperature;humidity
38183;DHT22;23991;52.430;10.586;2023-12-22T00:01:40;5.00;82.80
38183;DHT22;23991;52.430;10.586;2023-12-22T00:04:05;5.00;83.00
38183;DHT22;23991;52.430;10.586;2023-12-22T00:06:32;4.90;83.00
38183;DHT22;23991;52.430;10.586;2023-12-22T00:08:58;4.90;83.10
38183;DHT22;23991;52.430;10.586;2023-12-22T00:11:24;4.90;83.30
38183;DHT22;23991;52.430;10.586;2023-12-22T00:13:49;4.90;83.20
38183;DHT22;23991;52.430;10.586;2023-12-22T00:16:15;4.90;82.90
38183;DHT22;23991;52.430;10.586;2023-12-22T00:18:41;4.90;82.90
38183;DHT22;23991;52.430;10.586;2023-12-22T00:21:10;4.90;82.90
38183;DHT22;23991;52.430;10.586;2023-12-22T00:23:36;4.90;82.80
38183;DHT22;23991;52.430;10.586;2023-12-22T00:26:03;4.90;82.80
38183;DHT22;23991;52.430;10.586;2023-12-22T00:28:33;4.90;82.70
38183;DHT22;23991;52.430;10.586;2023-12-22T00:30:59;4.90;82.40
38183;DHT22;23991;52.430;10.586;2023-12-22T00:33:25;4.90;82.40
38183;DHT22;23991;52.430;10.586;2023-12-22T00:35:51;4.90;82.40
38183;DHT22;23991;52.430;10.586;2023-12-22T00:38:17;4.90;82.40
38183;DHT22;23991;52.430;10.586;2023-12-22T00:40:43;4.90;82.60
38183;DHT22;23991;52.430;10.586;2023-12-22T00:43:08;4.90;82.60
38183;DHT22;23991;52.430;10.586;2023-12-22T00:45:34;4.90;82.30
38183;DHT22;23991;52.430;10.586;2023-12-22T00:47:59;5.00;81.80
38183;DHT22;23991;52.430;10.586;2023-12-22T00:50:25;5.00;81.80
38183;DHT22;23991;52.430;10.586;2023-12-22T00:52:51;5.00;81.60
38183;DHT22;23991;52.430;10.586;2023-12-22T00:55:16;5.00;81.30
38183;DHT22;23991;52.430;10.586;2023-12-22T00:57:42;5.00;81.20
38183;DHT22;23991;52.430;10.586;2023-12-22T01:00:09;5.10;81.10
38183;DHT22;23991;52.430;10.586;2023-12-22T01:02:38;5.10;80.90
38183;DHT22;23991;52.430;10.586;2023-12-22T01:05:04;5.10;80.80
38183;DHT22;23991;52.430;10.586;2023-12-22T01:07:30;5.10;80.60
38183;DHT22;23991;52.430;10.586;2023-12-22T01:09:56;5.20;80.60
38183;DHT22;23991;52.430;10.586;2023-12-22T01:12:27;5.20;80.40
38183;DHT22;23991;52.430;10.586;2023-12-22T01:14:53;5.20;80.40
38183;DHT22;23991;52.430;10.586;2023-12-22T01:17:19;5.20;80.70
38183;DHT22;23991;52.430;10.586;2023-12-22T01:19:44;5.20;80.80
38183;DHT22;23991;52.430;10.586;2023-12-22T01:22:11;5.20;80.90
38183;DHT22;23991;52.430;10.586;2023-12-22T01:24:36;5.20;81.20
38183;DHT22;23991;52.430;10.586;2023-12-22T01:27:05;5.20;81.00
38183;DHT22;23991;52.430;10.586;2023-12-22T01:29:30;5.20;81.20
38183;DHT22;23991;52.430;10.586;2023-12-22T01:31:56;5.20;81.10
38183;DHT22;23991;52.430;10.586;2023-12-22T01:34:23;5.20;81.20
38183;DHT22;23991;52.430;10.586;2023-12-22T01:36:48;5.20;80.30
38183;DHT22;23991;52.430;10.586;2023-12-22T01:39:18;5.20;80.40
38183;DHT22;23991;52.430;10.586;2023-12-22T01:41:43;5.20;80.30
38183;DHT22;23991;52.430;10.586;2023-12-22T01:44:09;5.20;80.20
38183;DHT22;23991;52.430;10.586;2023-12-22T01:46:36;5.20;80.50
38183;DHT22;23991;52.430;10.586;2023-12-22T01:49:02;5.20;80.10
38183;DHT22;23991;52.430;10.586;2023-12-22T01:51:29;5.20;79.70
38183;DHT22;23991;52.430;10.586;2023-12-22T01:53:56;5.20;79.40
38183;DHT22;23991;52.430;10.586;2023-12-22T01:56:21;5.20;79.30
38183;DHT22;23991;52.430;10.586;2023-12-22T01:58:47;5.20;79.40
38183;DHT22;23991;52.430;10.586;2023-12-22T02:01:13;5.10;79.70
38183;DHT22;23991;52.430;10.586;2023-12-22T02:03:39;5.10;79.80
38183;DHT22;23991;52.430;10.586;2023-12-22T02:06:05;5.10;79.90
38183;DHT22;23991;52.430;10.586;2023-12-22T02:08:32;5.10;80.00
38183;DHT22;23991;52.430;10.586;2023-12-22T02:10:58;5.10;80.10
38183;DHT22;23991;52.430;10.586;2023-12-22T02:13:24;5.00;80.40
38183;DHT22;23991;52.430;10.586;2023-12-22T02:16:04;5.00;80.10
38183;DHT22;23991;52.430;10.586;2023-12-22T02:18:38;5.00;80.10
38183;DHT22;23991;52.430;10.586;2023-12-22T02:21:04;5.10;80.00
38183;DHT22;23991;52.430;10.586;2023-12-22T02:23:29;5.10;80.10
38183;DHT22;23991;52.430;10.586;2023-12-22T02:26:05;5.10;80.40
38183;DHT22;23991;52.430;10.586;2023-12-22T02:28:32;5.10;80.50
38183;DHT22;23991;52.430;10.586;2023-12-22T02:31:20;5.10;81.00
38183;DHT22;23991;52.430;10.586;2023-12-22T02:33:49;5.00;81.40
38183;DHT22;23991;52.430;10.586;2023-12-22T02:36:17;5.00;81.90
38183;DHT22;23991;52.430;10.586;2023-12-22T02:38:45;5.00;81.70
38183;DHT22;23991;52.430;10.586;2023-12-22T02:41:12;4.90;82.00
38183;DHT22;23991;52.430;10.586;2023-12-22T02:43:37;4.90;82.00
38183;DHT22;23991;52.430;10.586;2023-12-22T02:46:03;4.90;82.10
38183;DHT22;23991;52.430;10.586;2023-12-22T02:48:29;4.90;82.10
38183;DHT22;23991;52.430;10.586;2023-12-22T02:50:54;4.90;82.30
38183;DHT22;23991;52.430;10.586;2023-12-22T02:53:20;4.90;82.50
38183;DHT22;23991;52.430;10.586;2023-12-22T02:55:46;4.90;82.20
38183;DHT22;23991;52.430;10.586;2023-12-22T02:58:11;4.90;82.20
38183;DHT22;23991;52.430;10.586;2023-12-22T03:00:37;4.80;82.60
38183;DHT22;23991;52.430;10.586;2023-12-22T03:03:03;4.90;82.60
38183;DHT22;23991;52.430;10.586;2023-12-22T03:05:29;4.80;82.50
38183;DHT22;23991;52.430;10.586;2023-12-22T03:07:54;4.80;82.60
38183;DHT22;23991;52.430;10.586;2023-12-22T03:10:20;4.80;82.80
38183;DHT22;23991;52.430;10.586;2023-12-22T03:12:45;4.80;83.00
38183;DHT22;23991;52.430;10.586;2023-12-22T03:15:11;4.80;83.00
38183;DHT22;23991;52.430;10.586;2023-12-22T03:17:37;4.80;82.70
38183;DHT22;23991;52.430;10.586;2023-12-22T03:20:03;4.80;82.60
38183;DHT22;23991;52.430;10.586;2023-12-22T03:22:28;4.80;82.50
38183;DHT22;23991;52.430;10.586;2023-12-22T03:24:54;4.80;82.30
38183;DHT22;23991;52.430;10.586;2023-12-22T03:27:20;4.80;82.20
38183;DHT22;23991;52.430;10.586;2023-12-22T03:29:45;4.80;82.00
38183;DHT22;23991;52.430;10.586;2023-12-22T03:32:11;4.80;82.10
38183;DHT22;23991;52.430;10.586;2023-12-22T03:34:36;4.80;81.90
38183;DHT22;23991;52.430;10.586;2023-12-22T03:37:02;4.80;81.60
38183;DHT22;23991;52.430;10.586;2023-12-22T03:39:28;4.80;81.20
38183;DHT22;23991;52.430;10.586;2023-12-22T03:41:53;4.70;80.70
38183;DHT22;23991;52.430;10.586;2023-12-22T03:44:19;4.70;80.40
38183;DHT22;23991;52.430;10.586;2023-12-22T03:46:45;4.70;80.30
38183;DHT22;23991;52.430;10.586;2023-12-22T03:49:10;4.70;80.70
38183;DHT22;23991;52.430;10.586;2023-12-22T03:51:36;4.60;81.10
38183;DHT22;23991;52.430;10.586;2023-12-22T03:54:03;4.60;81.40
38183;DHT22;23991;52.430;10.586;2023-12-22T03:56:28;4.60;81.60
38183;DHT22;23991;52.430;10.586;2023-12-22T03:58:55;4.50;81.90
38183;DHT22;23991;52.430;10.586;2023-12-22T04:01:21;4.50;81.60
38183;DHT22;23991;52.430;10.586;2023-12-22T04:03:46;4.50;81.50
38183;DHT22;23991;52.430;10.586;2023-12-22T04:06:12;4.40;81.50
38183;DHT22;23991;52.430;10.586;2023-12-22T04:08:38;4.40;81.50
38183;DHT22;23991;52.430;10.586;2023-12-22T04:11:03;4.40;81.70
38183;DHT22;23991;52.430;10.586;2023-12-22T04:13:29;4.40;82.00
38183;DHT22;23991;52.430;10.586;2023-12-22T04:15:54;4.40;82.20
38183;DHT22;23991;52.430;10.586;2023-12-22T04:18:26;4.40;82.20
38183;DHT22;23991;52.430;10.586;2023-12-22T04:20:52;4.40;82.30
38183;DHT22;23991;52.430;10.586;2023-12-22T04:23:20;4.40;82.40
38183;DHT22;23991;52.430;10.586;2023-12-22T04:25:46;4.40;82.50
38183;DHT22;23991;52.430;10.586;2023-12-22T04:28:11;4.40;82.50
38183;DHT22;23991;52.430;10.586;2023-12-22T04:30:37;4.40;82.40
38183;DHT22;23991;52.430;10.586;2023-12-22T04:33:03;4.40;82.40
38183;DHT22;23991;52.430;10.586;2023-12-22T04:35:29;4.40;82.40
38183;DHT22;23991;52.430;10.586;2023-12-22T04:37:54;4.50;82.40
38183;DHT22;23991;52.430;10.586;2023-12-22T04:40:20;4.40;82.40
38183;DHT22;23991;52.430;10.586;2023-12-22T04:42:45;4.50;82.30
38183;DHT22;23991;52.430;10.586;2023-12-22T04:45:12;4.50;82.20
38183;DHT22;23991;52.430;10.586;2023-12-22T04:47:37;4.50;82.20
38183;DHT22;23991;52.430;10.586;2023-12-22T04:50:03;4.50;81.90
38183;DHT22;23991;52.430;10.586;2023-12-22T04:52:29;4.60;81.90
38183;DHT22;23991;52.430;10.586;2023-12-22T04:54:55;4.50;81.90
38183;DHT22;23991;52.430;10.586;2023-12-22T04:57:21;4.50;81.80
38183;DHT22;23991;52.430;10.586;2023-12-22T04:59:47;4.50;81.90
38183;DHT22;23991;52.430;10.586;2023-12-22T05:02:13;4.50;81.80
38183;DHT22;23991;52.430;10.586;2023-12-22T05:04:38;4.60;81.70
38183;DHT22;23991;52.430;10.586;2023-12-22T05:07:04;4.60;81.50
38183;DHT22;23991;52.430;10.586;2023-12-22T05:09:35;4.50;81.60
38183;DHT22;23991;52.430;10.586;2023-12-22T05:12:01;4.50;81.70
38183;DHT22;23991;52.430;10.586;2023-12-22T05:14:27;4.50;81.80
38183;DHT22;23991;52.430;10.586;2023-12-22T05:16:53;4.50;81.90
38183;DHT22;23991;52.430;10.586;2023-12-22T05:19:21;4.40;82.00
38183;DHT22;23991;52.430;10.586;2023-12-22T05:21:47;4.50;82.00
38183;DHT22;23991;52.430;10.586;2023-12-22T05:24:14;4.50;82.00
38183;DHT22;23991;52.430;10.586;2023-12-22T05:26:39;4.40;82.20
38183;DHT22;23991;52.430;10.586;2023-12-22T05:29:05;4.40;82.20
38183;DHT22;23991;52.430;10.586;2023-12-22T05:31:33;4.30;82.80
38183;DHT22;23991;52.430;10.586;2023-12-22T05:34:00;4.10;83.30
38183;DHT22;23991;52.430;10.586;2023-12-22T05:36:25;4.10;83.70
38183;DHT22;23991;52.430;10.586;2023-12-22T05:38:51;4.10;84.00
38183;DHT22;23991;52.430;10.586;2023-12-22T05:41:16;4.00;84.00
38183;DHT22;23991;52.430;10.586;2023-12-22T05:43:42;3.90;84.30
38183;DHT22;23991;52.430;10.586;2023-12-22T05:46:08;3.90;84.70
38183;DHT22;23991;52.430;10.586;2023-12-22T05:48:35;3.90;84.80
38183;DHT22;23991;52.430;10.586;2023-12-22T05:51:01;3.90;85.00
38183;DHT22;23991;52.430;10.586;2023-12-22T05:53:28;3.90;84.90
38183;DHT22;23991;52.430;10.586;2023-12-22T05:55:54;3.90;84.90
38183;DHT22;23991;52.430;10.586;2023-12-22T05:58:20;3.90;85.00
38183;DHT22;23991;52.430;10.586;2023-12-22T06:00:45;3.90;85.20
38183;DHT22;23991;52.430;10.586;2023-12-22T06:03:11;3.90;85.30
38183;DHT22;23991;52.430;10.586;2023-12-22T06:05:37;3.90;85.40
38183;DHT22;23991;52.430;10.586;2023-12-22T06:08:05;3.90;85.70
38183;DHT22;23991;52.430;10.586;2023-12-22T06:10:31;3.80;85.90
38183;DHT22;23991;52.430;10.586;2023-12-22T06:12:57;3.80;86.00
38183;DHT22;23991;52.430;10.586;2023-12-22T06:15:24;3.80;86.10
38183;DHT22;23991;52.430;10.586;2023-12-22T06:17:49;3.80;86.20
38183;DHT22;23991;52.430;10.586;2023-12-22T06:20:15;3.80;85.80
38183;DHT22;23991;52.430;10.586;2023-12-22T06:22:41;3.80;85.80
38183;DHT22;23991;52.430;10.586;2023-12-22T06:25:13;3.90;85.80
38183;DHT22;23991;52.430;10.586;2023-12-22T06:27:38;3.80;85.90
38183;DHT22;23991;52.430;10.586;2023-12-22T06:30:05;3.90;86.10
38183;DHT22;23991;52.430;10.586;2023-12-22T06:32:31;3.90;86.10
38183;DHT22;23991;52.430;10.586;2023-12-22T06:34:58;3.90;86.20
38183;DHT22;23991;52.430;10.586;2023-12-22T06:37:26;4.00;85.90
38183;DHT22;23991;52.430;10.586;2023-12-22T06:39:51;4.00;85.90
38183;DHT22;23991;52.430;10.586;2023-12-22T06:42:17;4.10;85.80
38183;DHT22;23991;52.430;10.586;2023-12-22T06:44:42;4.10;85.60
38183;DHT22;23991;52.430;10.586;2023-12-22T06:47:11;4.10;85.70
38183;DHT22;23991;52.430;10.586;2023-12-22T06:49:37;4.10;85.80
38183;DHT22;23991;52.430;10.586;2023-12-22T06:52:03;4.10;86.00
38183;DHT22;23991;52.430;10.586;2023-12-22T06:54:28;4.10;86.00
38183;DHT22;23991;52.430;10.586;2023-12-22T06:56:54;4.20;86.00
38183;DHT22;23991;52.430;10.586;2023-12-22T06:59:20;4.00;83.80
38183;DHT22;23991;52.430;10.586;2023-12-22T07:01:45;3.90;83.50
38183;DHT22;23991;52.430;10.586;2023-12-22T07:04:11;3.70;83.70
38183;DHT22;23991;52.430;10.586;2023-12-22T07:06:37;3.60;84.30
38183;DHT22;23991;52.430;10.586;2023-12-22T07:11:41;3.50;84.50
38183;DHT22;23991;52.430;10.586;2023-12-22T07:14:07;3.60;84.50
38183;DHT22;23991;52.430;10.586;2023-12-22T07:16:34;3.60;84.70
38183;DHT22;23991;52.430;10.586;2023-12-22T07:19:00;3.50;85.00
38183;DHT22;23991;52.430;10.586;2023-12-22T07:21:26;3.50;85.30
38183;DHT22;23991;52.430;10.586;2023-12-22T07:23:52;3.50;85.50
38183;DHT22;23991;52.430;10.586;2023-12-22T07:26:17;3.60;85.60
38183;DHT22;23991;52.430;10.586;2023-12-22T07:28:43;3.50;85.70
38183;DHT22;23991;52.430;10.586;2023-12-22T07:31:08;3.50;85.60
38183;DHT22;23991;52.430;10.586;2023-12-22T07:33:34;3.60;85.30
38183;DHT22;23991;52.430;10.586;2023-12-22T07:36:00;3.60;85.30
38183;DHT22;23991;52.430;10.586;2023-12-22T07:38:26;3.60;85.20
38183;DHT22;23991;52.430;10.586;2023-12-22T07:40:52;3.60;85.00
38183;DHT22;23991;52.430;10.586;2023-12-22T07:43:18;3.70;84.60
38183;DHT22;23991;52.430;10.586;2023-12-22T07:45:43;3.80;84.20
38183;DHT22;23991;52.430;10.586;2023-12-22T07:48:09;3.80;83.50
38183;DHT22;23991;52.430;10.586;2023-12-22T07:50:35;3.90;83.20
38183;DHT22;23991;52.430;10.586;2023-12-22T07:53:01;3.90;82.70
38183;DHT22;23991;52.430;10.586;2023-12-22T07:55:27;3.90;82.70
38183;DHT22;23991;52.430;10.586;2023-12-22T07:57:53;4.00;82.40
38183;DHT22;23991;52.430;10.586;2023-12-22T08:00:18;4.00;82.50
38183;DHT22;23991;52.430;10.586;2023-12-22T08:02:44;4.10;82.30
38183;DHT22;23991;52.430;10.586;2023-12-22T08:05:10;4.20;82.00
38183;DHT22;23991;52.430;10.586;2023-12-22T08:07:36;4.30;81.80
38183;DHT22;23991;52.430;10.586;2023-12-22T08:10:03;4.30;81.80
38183;DHT22;23991;52.430;10.586;2023-12-22T08:12:29;4.40;81.50
38183;DHT22;23991;52.430;10.586;2023-12-22T08:14:54;4.40;80.60
38183;DHT22;23991;52.430;10.586;2023-12-22T08:17:20;4.60;80.50
38183;DHT22;23991;52.430;10.586;2023-12-22T08:19:46;4.70;80.20
38183;DHT22;23991;52.430;10.586;2023-12-22T08:22:12;4.80;79.60
38183;DHT22;23991;52.430;10.586;2023-12-22T08:24:38;4.90;79.20
38183;DHT22;23991;52.430;10.586;2023-12-22T08:27:05;5.00;78.30
38183;DHT22;23991;52.430;10.586;2023-12-22T08:29:32;5.20;78.10
38183;DHT22;23991;52.430;10.586;2023-12-22T08:31:58;5.30;77.90
38183;DHT22;23991;52.430;10.586;2023-12-22T08:34:23;5.30;77.90
38183;DHT22;23991;52.430;10.586;2023-12-22T08:36:49;5.40;78.00
38183;DHT22;23991;52.430;10.586;2023-12-22T08:39:15;5.40;77.80
38183;DHT22;23991;52.430;10.586;2023-12-22T08:41:41;5.50;78.20
38183;DHT22;23991;52.430;10.586;2023-12-22T08:44:07;5.50;78.10
38183;DHT22;23991;52.430;10.586;2023-12-22T08:46:34;5.70;78.20
38183;DHT22;23991;52.430;10.586;2023-12-22T08:49:00;6.00;77.10
38183;DHT22;23991;52.430;10.586;2023-12-22T08:51:26;6.10;76.90
38183;DHT22;23991;52.430;10.586;2023-12-22T08:53:52;6.30;76.80
38183;DHT22;23991;52.430;10.586;2023-12-22T08:56:23;6.50;76.00
38183;DHT22;23991;52.430;10.586;2023-12-22T08:58:52;6.60;75.50
38183;DHT22;23991;52.430;10.586;2023-12-22T09:01:21;6.70;75.60
38183;DHT22;23991;52.430;10.586;2023-12-22T09:03:47;6.80;75.20
38183;DHT22;23991;52.430;10.586;2023-12-22T09:06:17;6.90;74.50
38183;DHT22;23991;52.430;10.586;2023-12-22T09:08:43;7.20;74.40
38183;DHT22;23991;52.430;10.586;2023-12-22T09:11:16;7.60;73.20
38183;DHT22;23991;52.430;10.586;2023-12-22T09:13:42;7.80;71.60
38183;DHT22;23991;52.430;10.586;2023-12-22T09:16:08;7.90;71.10
38183;DHT22;23991;52.430;10.586;2023-12-22T09:18:35;8.00;70.40
38183;DHT22;23991;52.430;10.586;2023-12-22T09:21:01;8.10;69.90
38183;DHT22;23991;52.430;10.586;2023-12-22T09:23:28;8.10;69.60
38183;DHT22;23991;52.430;10.586;2023-12-22T09:25:54;8.00;69.60
38183;DHT22;23991;52.430;10.586;2023-12-22T09:28:20;8.10;69.90
38183;DHT22;23991;52.430;10.586;2023-12-22T09:30:45;8.30;69.50
38183;DHT22;23991;52.430;10.586;2023-12-22T09:33:11;8.50;69.10
38183;DHT22;23991;52.430;10.586;2023-12-22T09:35:37;8.90;68.30
38183;DHT22;23991;52.430;10.586;2023-12-22T09:38:07;8.90;66.60
38183;DHT22;23991;52.430;10.586;2023-12-22T09:40:34;8.80;66.60
38183;DHT22;23991;52.430;10.586;2023-12-22T09:43:02;8.90;66.60
38183;DHT22;23991;52.430;10.586;2023-12-22T09:45:30;9.30;65.30
38183;DHT22;23991;52.430;10.586;2023-12-22T09:47:56;9.60;64.60
38183;DHT22;23991;52.430;10.586;2023-12-22T09:50:23;9.70;64.00
38183;DHT22;23991;52.430;10.586;2023-12-22T09:52:50;9.50;64.10
38183;DHT22;23991;52.430;10.586;2023-12-22T09:55:16;9.30;64.00
38183;DHT22;23991;52.430;10.586;2023-12-22T09:57:44;9.40;63.60
38183;DHT22;23991;52.430;10.586;2023-12-22T10:00:11;9.30;63.20
38183;DHT22;23991;52.430;10.586;2023-12-22T10:02:39;9.00;64.10
38183;DHT22;23991;52.430;10.586;2023-12-22T10:05:05;8.70;65.00
38183;DHT22;23991;52.430;10.586;2023-12-22T10:07:31;8.60;66.10
38183;DHT22;23991;52.430;10.586;2023-12-22T10:09:57;8.40;67.10
38183;DHT22;23991;52.430;10.586;2023-12-22T10:12:25;8.60;67.30
38183;DHT22;23991;52.430;10.586;2023-12-22T10:14:51;8.70;67.00
38183;DHT22;23991;52.430;10.586;2023-12-22T10:17:18;8.90;66.90
38183;DHT22;23991;52.430;10.586;2023-12-22T10:19:44;9.10;65.80
38183;DHT22;23991;52.430;10.586;2023-12-22T10:22:09;9.10;66.10
38183;DHT22;23991;52.430;10.586;2023-12-22T10:24:43;9.20;65.70
38183;DHT22;23991;52.430;10.586;2023-12-22T10:27:10;9.20;65.90
38183;DHT22;23991;52.430;10.586;2023-12-22T10:29:36;9.10;66.60
38183;DHT22;23991;52.430;10.586;2023-12-22T10:32:02;9.30;66.70
38183;DHT22;23991;52.430;10.586;2023-12-22T10:34:29;9.30;66.80
38183;DHT22;23991;52.430;10.586;2023-12-22T10:36:55;9.40;66.40
38183;DHT22;23991;52.430;10.586;2023-12-22T10:39:21;9.50;66.50
38183;DHT22;23991;52.430;10.586;2023-12-22T10:41:48;9.50;66.20
38183;DHT22;23991;52.430;10.586;2023-12-22T10:44:17;9.40;66.60
38183;DHT22;23991;52.430;10.586;2023-12-22T10:46:43;9.40;65.90
38183;DHT22;23991;52.430;10.586;2023-12-22T10:49:09;9.40;66.20
38183;DHT22;23991;52.430;10.586;2023-12-22T10:51:34;9.40;66.10
38183;DHT22;23991;52.430;10.586;2023-12-22T10:54:00;9.10;66.10
38183;DHT22;23991;52.430;10.586;2023-12-22T10:56:26;9.00;66.90
38183;DHT22;23991;52.430;10.586;2023-12-22T10:58:53;9.20;66.70
38183;DHT22;23991;52.430;10.586;2023-12-22T11:01:21;9.10;67.00
38183;DHT22;23991;52.430;10.586;2023-12-22T11:03:50;9.00;66.70
38183;DHT22;23991;52.430;10.586;2023-12-22T11:06:17;8.90;67.40
38183;DHT22;23991;52.430;10.586;2023-12-22T11:08:46;9.00;67.10
38183;DHT22;23991;52.430;10.586;2023-12-22T11:11:20;8.90;67.60
38183;DHT22;23991;52.430;10.586;2023-12-22T11:13:50;9.00;67.80
38183;DHT22;23991;52.430;10.586;2023-12-22T11:16:17;9.10;67.10
38183;DHT22;23991;52.430;10.586;2023-12-22T11:18:44;9.20;67.20
38183;DHT22;23991;52.430;10.586;2023-12-22T11:21:10;9.30;67.00
38183;DHT22;23991;52.430;10.586;2023-12-22T11:23:38;9.40;66.70
38183;DHT22;23991;52.430;10.586;2023-12-22T11:26:05;9.40;67.20
38183;DHT22;23991;52.430;10.586;2023-12-22T11:28:33;9.30;67.00
38183;DHT22;23991;52.430;10.586;2023-12-22T11:31:01;9.30;67.80
38183;DHT22;23991;52.430;10.586;2023-12-22T11:33:28;9.30;67.80
38183;DHT22;23991;52.430;10.586;2023-12-22T11:35:55;9.20;67.60
38183;DHT22;23991;52.430;10.586;2023-12-22T11:38:21;9.20;67.50
38183;DHT22;23991;52.430;10.586;2023-12-22T11:40:49;9.20;68.10
38183;DHT22;23991;52.430;10.586;2023-12-22T11:43:18;9.10;68.40
38183;DHT22;23991;52.430;10.586;2023-12-22T11:45:44;9.00;68.10
38183;DHT22;23991;52.430;10.586;2023-12-22T11:48:10;8.80;68.20
38183;DHT22;23991;52.430;10.586;2023-12-22T11:50:37;8.60;68.70
38183;DHT22;23991;52.430;10.586;2023-12-22T11:53:25;8.60;69.60
38183;DHT22;23991;52.430;10.586;2023-12-22T12:01:01;8.50;70.00
38183;DHT22;23991;52.430;10.586;2023-12-22T12:03:30;8.30;70.50
38183;DHT22;23991;52.430;10.586;2023-12-22T12:06:22;8.30;70.80
38183;DHT22;23991;52.430;10.586;2023-12-22T12:09:00;8.40;70.60
38183;DHT22;23991;52.430;10.586;2023-12-22T12:14:29;8.30;70.20
38183;DHT22;23991;52.430;10.586;2023-12-22T12:17:03;8.50;70.20
38183;DHT22;23991;52.430;10.586;2023-12-22T12:19:31;8.50;69.90
38183;DHT22;23991;52.430;10.586;2023-12-22T12:21:58;8.50;70.10
38183;DHT22;23991;52.430;10.586;2023-12-22T12:24:27;8.50;69.70
38183;DHT22;23991;52.430;10.586;2023-12-22T12:26:52;8.50;70.30
38183;DHT22;23991;52.430;10.586;2023-12-22T12:29:20;8.60;70.10
38183;DHT22;23991;52.430;10.586;2023-12-22T12:31:46;8.80;69.50
38183;DHT22;23991;52.430;10.586;2023-12-22T12:34:11;8.70;69.80
38183;DHT22;23991;52.430;10.586;2023-12-22T12:36:39;8.80;69.90
38183;DHT22;23991;52.430;10.586;2023-12-22T12:39:08;9.10;69.80
38183;DHT22;23991;52.430;10.586;2023-12-22T12:41:39;9.10;69.00
38183;DHT22;23991;52.430;10.586;2023-12-22T12:44:06;9.00;69.30
38183;DHT22;23991;52.430;10.586;2023-12-22T12:46:36;8.90;69.00
38183;DHT22;23991;52.430;10.586;2023-12-22T12:49:08;8.70;69.60
38183;DHT22;23991;52.430;10.586;2023-12-22T12:51:52;8.70;69.90
38183;DHT22;23991;52.430;10.586;2023-12-22T12:54:27;8.90;70.10
38183;DHT22;23991;52.430;10.586;2023-12-22T12:57:00;8.80;69.80
38183;DHT22;23991;52.430;10.586;2023-12-22T12:59:26;8.80;69.80
38183;DHT22;23991;52.430;10.586;2023-12-22T13:01:51;8.90;69.70
38183;DHT22;23991;52.430;10.586;2023-12-22T13:04:18;9.00;69.60
38183;DHT22;23991;52.430;10.586;2023-12-22T13:06:50;9.10;69.50
38183;DHT22;23991;52.430;10.586;2023-12-22T13:09:17;9.30;69.00
38183;DHT22;23991;52.430;10.586;2023-12-22T13:11:44;9.20;69.10
38183;DHT22;23991;52.430;10.586;2023-12-22T13:14:23;9.30;69.10
38183;DHT22;23991;52.430;10.586;2023-12-22T13:16:51;9.10;69.60
38183;DHT22;23991;52.430;10.586;2023-12-22T13:19:18;9.10;69.70
38183;DHT22;23991;52.430;10.586;2023-12-22T13:21:43;9.20;70.00
38183;DHT22;23991;52.430;10.586;2023-12-22T13:24:18;9.20;69.50
38183;DHT22;23991;52.430;10.586;2023-12-22T13:26:45;9.10;69.90
38183;DHT22;23991;52.430;10.586;2023-12-22T13:29:11;8.90;70.30
38183;DHT22;23991;52.430;10.586;2023-12-22T13:31:38;9.00;70.40
38183;DHT22;23991;52.430;10.586;2023-12-22T13:34:11;9.10;69.90
38183;DHT22;23991;52.430;10.586;2023-12-22T13:36:41;9.10;70.50
38183;DHT22;23991;52.430;10.586;2023-12-22T13:39:10;9.30;69.70
38183;DHT22;23991;52.430;10.586;2023-12-22T13:41:42;9.30;69.70
38183;DHT22;23991;52.430;10.586;2023-12-22T13:44:11;9.30;69.50
38183;DHT22;23991;52.430;10.586;2023-12-22T13:46:37;9.60;69.00
38183;DHT22;23991;52.430;10.586;2023-12-22T13:49:10;9.60;68.60
38183;DHT22;23991;52.430;10.586;2023-12-22T13:51:43;9.60;69.10
38183;DHT22;23991;52.430;10.586;2023-12-22T13:54:09;9.60;68.60
38183;DHT22;23991;52.430;10.586;2023-12-22T13:56:36;9.50;69.00
38183;DHT22;23991;52.430;10.586;2023-12-22T13:59:03;9.60;68.80
38183;DHT22;23991;52.430;10.586;2023-12-22T14:01:29;9.60;68.90
38183;DHT22;23991;52.430;10.586;2023-12-22T14:03:56;9.70;69.10
38183;DHT22;23991;52.430;10.586;2023-12-22T14:06:26;9.70;68.80
38183;DHT22;23991;52.430;10.586;2023-12-22T14:08:53;9.70;68.70
38183;DHT22;23991;52.430;10.586;2023-12-22T14:11:19;9.70;69.00
38183;DHT22;23991;52.430;10.586;2023-12-22T14:13:45;9.80;68.80
38183;DHT22;23991;52.430;10.586;2023-12-22T14:16:11;9.80;68.60
38183;DHT22;23991;52.430;10.586;2023-12-22T14:18:39;9.70;68.50
38183;DHT22;23991;52.430;10.586;2023-12-22T14:21:05;9.70;68.30
38183;DHT22;23991;52.430;10.586;2023-12-22T14:23:31;9.70;68.70
38183;DHT22;23991;52.430;10.586;2023-12-22T14:25:57;9.60;68.40
38183;DHT22;23991;52.430;10.586;2023-12-22T14:28:23;9.40;68.10
38183;DHT22;23991;52.430;10.586;2023-12-22T14:30:48;9.10;67.50
38183;DHT22;23991;52.430;10.586;2023-12-22T14:33:14;8.90;68.00
38183;DHT22;23991;52.430;10.586;2023-12-22T14:35:40;8.90;67.00
38183;DHT22;23991;52.430;10.586;2023-12-22T14:38:06;8.40;66.50
38183;DHT22;23991;52.430;10.586;2023-12-22T14:40:32;8.20;68.10
38183;DHT22;23991;52.430;10.586;2023-12-22T14:42:58;8.10;68.60
38183;DHT22;23991;52.430;10.586;2023-12-22T14:45:24;8.10;68.90
38183;DHT22;23991;52.430;10.586;2023-12-22T14:47:50;8.00;69.00
38183;DHT22;23991;52.430;10.586;2023-12-22T14:50:17;8.10;69.60
38183;DHT22;23991;52.430;10.586;2023-12-22T14:52:43;8.20;69.00
38183;DHT22;23991;52.430;10.586;2023-12-22T14:55:10;7.90;69.30
38183;DHT22;23991;52.430;10.586;2023-12-22T14:57:35;7.70;70.50
38183;DHT22;23991;52.430;10.586;2023-12-22T15:00:02;7.80;70.70
38183;DHT22;23991;52.430;10.586;2023-12-22T15:02:27;7.70;71.30
38183;DHT22;23991;52.430;10.586;2023-12-22T15:04:53;7.50;72.40
38183;DHT22;23991;52.430;10.586;2023-12-22T15:07:19;7.60;73.20
38183;DHT22;23991;52.430;10.586;2023-12-22T15:09:45;7.60;73.80
38183;DHT22;23991;52.430;10.586;2023-12-22T15:12:17;7.60;74.00
38183;DHT22;23991;52.430;10.586;2023-12-22T15:14:47;7.70;74.30
38183;DHT22;23991;52.430;10.586;2023-12-22T15:17:13;7.70;74.40
38183;DHT22;23991;52.430;10.586;2023-12-22T15:19:43;7.60;74.80
38183;DHT22;23991;52.430;10.586;2023-12-22T15:22:12;7.60;75.30
38183;DHT22;23991;52.430;10.586;2023-12-22T15:24:39;7.70;75.70
38183;DHT22;23991;52.430;10.586;2023-12-22T15:27:09;7.80;75.70
38183;DHT22;23991;52.430;10.586;2023-12-22T15:29:34;7.80;75.70
38183;DHT22;23991;52.430;10.586;2023-12-22T15:32:00;7.70;76.30
38183;DHT22;23991;52.430;10.586;2023-12-22T15:34:26;7.50;77.30
38183;DHT22;23991;52.430;10.586;2023-12-22T15:36:52;7.20;77.30
38183;DHT22;23991;52.430;10.586;2023-12-22T15:39:18;7.00;76.50